Housenmaru — JD4060 — position and weather

sailwx.info

Track history (hours):
 
Tides and Currents Weather Stations Pressure Air Temp Water Temp Dewpoint Dewpoint Depression Visibility Wind Speed Wind Dir Waves Ship Positions

Housenmaru

Last reported at 2017-Oct-19 01:15 UTC. Time now 2017-Oct-19 01:47 UTC.
Position N 34°39' E 135°28'.

Length 58 m; draft 4.2 m.

Type: Cargo ship. MMSI: 431008226.

Date/timePositionNaut miles runAvg speedWind from/ knotsBaromVisibWave heightAir tempDewpointWater temp
2017-Oct-19 01:15N 34°39' E 135°28'0 0.0
2017-Oct-19 00:58N 34°39' E 135°28'0 0.0
2017-Oct-19 00:30N 34°39' E 135°28'0 0.0
2017-Oct-19 00:00N 34°39' E 135°28'0 0.0
2017-Oct-18 23:30N 34°39' E 135°28'0 0.0
2017-Oct-18 23:00N 34°39' E 135°28'0 0.0
2017-Oct-18 22:30N 34°39' E 135°28'0 0.0
2017-Oct-18 22:00N 34°39' E 135°28'0 0.0
2017-Oct-18 21:30N 34°39' E 135°28'0 0.0
2017-Oct-18 21:00N 34°39' E 135°28'0 0.0
2017-Oct-18 20:30N 34°39' E 135°28'0 0.0
2017-Oct-18 20:00N 34°39' E 135°28'0 0.0
2017-Oct-18 19:30N 34°39' E 135°28'0 0.0
2017-Oct-18 19:00N 34°39' E 135°28'0 0.0
2017-Oct-18 18:30N 34°39' E 135°28'0 0.0
2017-Oct-18 18:00N 34°39' E 135°28'0 0.0
2017-Oct-18 17:30N 34°39' E 135°28'0 0.0
2017-Oct-18 17:00N 34°39' E 135°28'0 0.0
2017-Oct-18 16:30N 34°39' E 135°28'0 0.0
2017-Oct-18 16:00N 34°39' E 135°28'0 0.0
2017-Oct-18 15:30N 34°39' E 135°28'0 0.0
2017-Oct-18 15:00N 34°39' E 135°28'0 0.0
2017-Oct-18 14:00N 34°39' E 135°28'0 0.0
2017-Oct-18 13:30N 34°39' E 135°28'0 0.0
2017-Oct-18 13:00N 34°39' E 135°28'0 0.0
2017-Oct-18 12:30N 34°39' E 135°28'0 0.0
2017-Oct-18 12:00N 34°39' E 135°28'0 0.0
2017-Oct-18 11:30N 34°39' E 135°28'0 0.0
2017-Oct-18 11:00N 34°39' E 135°28'0 0.0
2017-Oct-18 10:30N 34°39' E 135°28'0 0.0
2017-Oct-18 10:00N 34°39' E 135°28'0 0.0
2017-Oct-18 09:30N 34°39' E 135°28'0 0.0
2017-Oct-18 08:56N 34°39' E 135°28'0 0.3
2017-Oct-18 08:30N 34°39' E 135°28'1 1.4
2017-Oct-18 07:53N 34°39' E 135°27'2 6.4
2017-Oct-18 07:30N 34°38' E 135°24'4 8.2
2017-Oct-18 07:00N 34°34' E 135°22'4 7.2
2017-Oct-18 06:27N 34°31' E 135°24'0 0.5
2017-Oct-18 05:53N 34°31' E 135°24'0 0.0
2017-Oct-18 05:29N 34°31' E 135°24'0 0.0
2017-Oct-18 05:00N 34°31' E 135°24'0 0.0
2017-Oct-18 04:28N 34°31' E 135°24'0 0.0
2017-Oct-18 04:00N 34°31' E 135°24'0 0.3
2017-Oct-18 03:30N 34°31' E 135°24'0 0.0
2017-Oct-18 03:00N 34°31' E 135°24'0 0.0
2017-Oct-18 02:30N 34°31' E 135°24'0 0.0
2017-Oct-18 02:00N 34°31' E 135°24'0 0.0
2017-Oct-18 01:30N 34°31' E 135°24'0 0.0
2017-Oct-18 01:00N 34°31' E 135°24'0 0.0
2017-Oct-18 00:30N 34°31' E 135°24'0 0.0
2017-Oct-18 00:00N 34°31' E 135°24'1 1.8
2017-Oct-17 23:30N 34°32' E 135°24'2 0.4
2017-Oct-17 17:55N 34°32' E 135°21'0 0.0
2017-Oct-17 17:30N 34°32' E 135°21'0 0.1
2017-Oct-17 16:53N 34°32' E 135°21'3 3.0
2017-Oct-17 15:59N 34°31' E 135°19'510.4
2017-Oct-17 15:30N 34°28' E 135°13'510.2
2017-Oct-17 14:59N 34°24' E 135°09'9 9.4
2017-Oct-17 13:59N 34°16' E 135°03'510.2
2017-Oct-17 13:30N 34°11' E 135°03'610.5
2017-Oct-17 12:57N 34°05' E 135°02'211 4.5
2017-Oct-15 13:57N 34°51' E 139°13'20 9.2
2017-Oct-15 11:44N 35°03' E 139°33'210.7
2017-Oct-15 11:30N 35°04' E 139°35'612.4
2017-Oct-15 10:59N 35°08' E 139°42'612.3
2017-Oct-15 10:30N 35°13' E 139°46'611.5
2017-Oct-15 10:00N 35°18' E 139°44'510.8
2017-Oct-15 09:30N 35°23' E 139°42'5 9.8
2017-Oct-15 09:00N 35°25' E 139°48'5 9.4
2017-Oct-15 08:30N 35°21' E 139°51'0 0.0
2017-Oct-15 07:53N 35°21' E 139°51'0 0.2
2017-Oct-15 07:24N 35°21' E 139°51'0 0.1
2017-Oct-15 06:31N 35°21' E 139°51'0 0.0
2017-Oct-14 21:38N 35°21' E 139°51'0 0.1
2017-Oct-14 21:25N 35°21' E 139°51'0 0.0
2017-Oct-14 20:25N 35°21' E 139°51'0 0.0
2017-Oct-14 13:47N 35°21' E 139°51'1 3.1
2017-Oct-14 13:30N 35°22' E 139°51'5 9.0
2017-Oct-14 13:00N 35°21' E 139°45'5 9.9
2017-Oct-14 12:30N 35°16' E 139°46'510.0
2017-Oct-14 12:00N 35°11' E 139°47'5 9.6
2017-Oct-14 11:30N 35°07' E 139°45'5 9.7
2017-Oct-14 11:00N 35°03' E 139°41'510.4
2017-Oct-14 10:30N 34°60' E 139°36'612.2
2017-Oct-14 10:00N 34°56' E 139°30'  
Track history (hours):
 
Tides and Currents Weather Stations Pressure Air Temp Water Temp Dewpoint Dewpoint Depression Visibility Wind Speed Wind Dir Waves Ship Positions

Housenmaru

Last reported at 2017-Oct-19 01:15 UTC. Time now 2017-Oct-19 01:47 UTC.
Position N 34°39' E 135°28'.

Length 58 m; draft 4.2 m.

Type: Cargo ship. MMSI: 431008226.

Date/timePositionNaut miles runAvg speedWind from/ knotsBaromVisibWave heightAir tempDewpointWater temp
2017-Oct-19 01:15N 34°39' E 135°28'0 0.0
2017-Oct-19 00:58N 34°39' E 135°28'0 0.0
2017-Oct-19 00:30N 34°39' E 135°28'0 0.0
2017-Oct-19 00:00N 34°39' E 135°28'0 0.0
2017-Oct-18 23:30N 34°39' E 135°28'0 0.0
2017-Oct-18 23:00N 34°39' E 135°28'0 0.0
2017-Oct-18 22:30N 34°39' E 135°28'0 0.0
2017-Oct-18 22:00N 34°39' E 135°28'0 0.0
2017-Oct-18 21:30N 34°39' E 135°28'0 0.0
2017-Oct-18 21:00N 34°39' E 135°28'0 0.0
2017-Oct-18 20:30N 34°39' E 135°28'0 0.0
2017-Oct-18 20:00N 34°39' E 135°28'0 0.0
2017-Oct-18 19:30N 34°39' E 135°28'0 0.0
2017-Oct-18 19:00N 34°39' E 135°28'0 0.0
2017-Oct-18 18:30N 34°39' E 135°28'0 0.0
2017-Oct-18 18:00N 34°39' E 135°28'0 0.0
2017-Oct-18 17:30N 34°39' E 135°28'0 0.0
2017-Oct-18 17:00N 34°39' E 135°28'0 0.0
2017-Oct-18 16:30N 34°39' E 135°28'0 0.0
2017-Oct-18 16:00N 34°39' E 135°28'0 0.0
2017-Oct-18 15:30N 34°39' E 135°28'0 0.0
2017-Oct-18 15:00N 34°39' E 135°28'0 0.0
2017-Oct-18 14:00N 34°39' E 135°28'0 0.0
2017-Oct-18 13:30N 34°39' E 135°28'0 0.0
2017-Oct-18 13:00N 34°39' E 135°28'0 0.0
2017-Oct-18 12:30N 34°39' E 135°28'0 0.0
2017-Oct-18 12:00N 34°39' E 135°28'0 0.0
2017-Oct-18 11:30N 34°39' E 135°28'0 0.0
2017-Oct-18 11:00N 34°39' E 135°28'0 0.0
2017-Oct-18 10:30N 34°39' E 135°28'0 0.0
2017-Oct-18 10:00N 34°39' E 135°28'0 0.0
2017-Oct-18 09:30N 34°39' E 135°28'0 0.0
2017-Oct-18 08:56N 34°39' E 135°28'0 0.3
2017-Oct-18 08:30N 34°39' E 135°28'1 1.4
2017-Oct-18 07:53N 34°39' E 135°27'2 6.4
2017-Oct-18 07:30N 34°38' E 135°24'4 8.2
2017-Oct-18 07:00N 34°34' E 135°22'4 7.2
2017-Oct-18 06:27N 34°31' E 135°24'0 0.5
2017-Oct-18 05:53N 34°31' E 135°24'0 0.0
2017-Oct-18 05:29N 34°31' E 135°24'0 0.0
2017-Oct-18 05:00N 34°31' E 135°24'0 0.0
2017-Oct-18 04:28N 34°31' E 135°24'0 0.0
2017-Oct-18 04:00N 34°31' E 135°24'0 0.3
2017-Oct-18 03:30N 34°31' E 135°24'0 0.0
2017-Oct-18 03:00N 34°31' E 135°24'0 0.0
2017-Oct-18 02:30N 34°31' E 135°24'0 0.0
2017-Oct-18 02:00N 34°31' E 135°24'0 0.0
2017-Oct-18 01:30N 34°31' E 135°24'0 0.0
2017-Oct-18 01:00N 34°31' E 135°24'0 0.0
2017-Oct-18 00:30N 34°31' E 135°24'0 0.0
2017-Oct-18 00:00N 34°31' E 135°24'1 1.8
2017-Oct-17 23:30N 34°32' E 135°24'2 0.4
2017-Oct-17 17:55N 34°32' E 135°21'0 0.0
2017-Oct-17 17:30N 34°32' E 135°21'0 0.1
2017-Oct-17 16:53N 34°32' E 135°21'3 3.0
2017-Oct-17 15:59N 34°31' E 135°19'510.4
2017-Oct-17 15:30N 34°28' E 135°13'510.2
2017-Oct-17 14:59N 34°24' E 135°09'9 9.4
2017-Oct-17 13:59N 34°16' E 135°03'510.2
2017-Oct-17 13:30N 34°11' E 135°03'610.5
2017-Oct-17 12:57N 34°05' E 135°02'211 4.5
2017-Oct-15 13:57N 34°51' E 139°13'20 9.2
2017-Oct-15 11:44N 35°03' E 139°33'210.7
2017-Oct-15 11:30N 35°04' E 139°35'612.4
2017-Oct-15 10:59N 35°08' E 139°42'612.3
2017-Oct-15 10:30N 35°13' E 139°46'611.5
2017-Oct-15 10:00N 35°18' E 139°44'510.8
2017-Oct-15 09:30N 35°23' E 139°42'5 9.8
2017-Oct-15 09:00N 35°25' E 139°48'5 9.4
2017-Oct-15 08:30N 35°21' E 139°51'0 0.0
2017-Oct-15 07:53N 35°21' E 139°51'0 0.2
2017-Oct-15 07:24N 35°21' E 139°51'0 0.1
2017-Oct-15 06:31N 35°21' E 139°51'0 0.0
2017-Oct-14 21:38N 35°21' E 139°51'0 0.1
2017-Oct-14 21:25N 35°21' E 139°51'0 0.0
2017-Oct-14 20:25N 35°21' E 139°51'0 0.0
2017-Oct-14 13:47N 35°21' E 139°51'1 3.1
2017-Oct-14 13:30N 35°22' E 139°51'5 9.0
2017-Oct-14 13:00N 35°21' E 139°45'5 9.9
2017-Oct-14 12:30N 35°16' E 139°46'510.0
2017-Oct-14 12:00N 35°11' E 139°47'5 9.6
2017-Oct-14 11:30N 35°07' E 139°45'5 9.7
2017-Oct-14 11:00N 35°03' E 139°41'510.4
2017-Oct-14 10:30N 34°60' E 139°36'612.2
2017-Oct-14 10:00N 34°56' E 139°30'  

Dump ship's entire track history